sensor_id;sensor_type;location;lat;lon;timestamp;pressure;altitude;pressure_sealevel;temperature;humidity
61318;BME280;47201;40.428;-8.436;2023-07-31T00:00:18;101143.09;;;17.92;100.00
61318;BME280;47201;40.428;-8.436;2023-07-31T00:02:18;101147.44;;;17.95;100.00
61318;BME280;47201;40.428;-8.436;2023-07-31T00:04:19;101147.44;;;17.95;100.00
61318;BME280;47201;40.428;-8.436;2023-07-31T00:06:19;101145.72;;;17.95;100.00
61318;BME280;47201;40.428;-8.436;2023-07-31T00:08:20;101140.44;;;17.95;100.00
61318;BME280;47201;40.428;-8.436;2023-07-31T00:10:21;101130.69;;;17.96;100.00
61318;BME280;47201;40.428;-8.436;2023-07-31T00:12:22;101128.84;;;17.99;100.00
61318;BME280;47201;40.428;-8.436;2023-07-31T00:14:23;101139.25;;;18.07;100.00
61318;BME280;47201;40.428;-8.436;2023-07-31T00:16:24;101136.84;;;17.98;100.00
61318;BME280;47201;40.428;-8.436;2023-07-31T00:18:24;101127.19;;;17.95;100.00
61318;BME280;47201;40.428;-8.436;2023-07-31T00:20:25;101135.13;;;17.95;100.00
61318;BME280;47201;40.428;-8.436;2023-07-31T00:22:29;101129.78;;;17.98;100.00
61318;BME280;47201;40.428;-8.436;2023-07-31T00:24:29;101130.69;;;17.97;100.00
61318;BME280;47201;40.428;-8.436;2023-07-31T00:26:30;101132.50;;;17.94;100.00
61318;BME280;47201;40.428;-8.436;2023-07-31T00:28:32;101132.50;;;17.95;100.00
61318;BME280;47201;40.428;-8.436;2023-07-31T00:30:34;101131.56;;;17.95;100.00
61318;BME280;47201;40.428;-8.436;2023-07-31T00:32:35;101136.00;;;17.94;100.00
61318;BME280;47201;40.428;-8.436;2023-07-31T00:34:35;101128.06;;;17.94;100.00
61318;BME280;47201;40.428;-8.436;2023-07-31T00:36:37;101129.09;;;17.88;100.00
61318;BME280;47201;40.428;-8.436;2023-07-31T00:38:37;101124.63;;;17.90;100.00
61318;BME280;47201;40.428;-8.436;2023-07-31T00:40:38;101115.91;;;17.87;100.00
61318;BME280;47201;40.428;-8.436;2023-07-31T00:42:39;101116.78;;;17.87;100.00
61318;BME280;47201;40.428;-8.436;2023-07-31T00:44:39;101112.47;;;17.83;100.00
61318;BME280;47201;40.428;-8.436;2023-07-31T00:46:40;101105.53;;;17.79;100.00
61318;BME280;47201;40.428;-8.436;2023-07-31T00:48:41;101104.66;;;17.79;100.00
61318;BME280;47201;40.428;-8.436;2023-07-31T00:50:41;101103.72;;;17.81;100.00
61318;BME280;47201;40.428;-8.436;2023-07-31T00:52:42;101099.47;;;17.74;100.00
61318;BME280;47201;40.428;-8.436;2023-07-31T00:54:43;101091.66;;;17.71;100.00
61318;BME280;47201;40.428;-8.436;2023-07-31T00:56:45;101095.25;;;17.67;100.00
61318;BME280;47201;40.428;-8.436;2023-07-31T00:58:46;101089.22;;;17.62;100.00
61318;BME280;47201;40.428;-8.436;2023-07-31T01:00:46;101084.72;;;17.65;100.00
61318;BME280;47201;40.428;-8.436;2023-07-31T01:02:51;101095.34;;;17.64;100.00
61318;BME280;47201;40.428;-8.436;2023-07-31T01:04:52;101087.38;;;17.65;100.00
61318;BME280;47201;40.428;-8.436;2023-07-31T01:11:25;101092.44;;;17.74;100.00
61318;BME280;47201;40.428;-8.436;2023-07-31T01:13:28;101087.09;;;17.76;100.00
61318;BME280;47201;40.428;-8.436;2023-07-31T01:15:29;101087.16;;;17.73;100.00
61318;BME280;47201;40.428;-8.436;2023-07-31T01:17:30;101082.88;;;17.69;100.00
61318;BME280;47201;40.428;-8.436;2023-07-31T01:19:30;101085.47;;;17.72;100.00
61318;BME280;47201;40.428;-8.436;2023-07-31T01:26:16;101079.22;;;17.74;100.00
61318;BME280;47201;40.428;-8.436;2023-07-31T01:31:00;101079.72;;;17.54;100.00
61318;BME280;47201;40.428;-8.436;2023-07-31T01:33:02;101076.97;;;17.57;100.00
61318;BME280;47201;40.428;-8.436;2023-07-31T01:35:08;101072.63;;;17.56;100.00
61318;BME280;47201;40.428;-8.436;2023-07-31T01:37:09;101064.66;;;17.58;100.00
61318;BME280;47201;40.428;-8.436;2023-07-31T01:39:10;101070.78;;;17.58;100.00
61318;BME280;47201;40.428;-8.436;2023-07-31T01:41:11;101062.13;;;17.53;100.00
61318;BME280;47201;40.428;-8.436;2023-07-31T01:43:12;101065.59;;;17.55;100.00
61318;BME280;47201;40.428;-8.436;2023-07-31T01:45:12;101062.13;;;17.53;100.00
61318;BME280;47201;40.428;-8.436;2023-07-31T01:47:13;101062.13;;;17.53;100.00
61318;BME280;47201;40.428;-8.436;2023-07-31T01:49:14;101063.84;;;17.54;100.00
61318;BME280;47201;40.428;-8.436;2023-07-31T01:51:15;101063.84;;;17.54;100.00
61318;BME280;47201;40.428;-8.436;2023-07-31T01:53:16;101062.06;;;17.55;100.00
61318;BME280;47201;40.428;-8.436;2023-07-31T01:55:17;101061.94;;;17.59;100.00
61318;BME280;47201;40.428;-8.436;2023-07-31T01:57:17;101068.06;;;17.62;100.00
61318;BME280;47201;40.428;-8.436;2023-07-31T01:59:18;101065.44;;;17.62;100.00
61318;BME280;47201;40.428;-8.436;2023-07-31T02:01:19;101069.94;;;17.58;100.00
61318;BME280;47201;40.428;-8.436;2023-07-31T02:03:19;101074.22;;;17.62;100.00
61318;BME280;47201;40.428;-8.436;2023-07-31T02:05:20;101068.13;;;17.60;100.00
61318;BME280;47201;40.428;-8.436;2023-07-31T02:07:21;101064.59;;;17.59;100.00
61318;BME280;47201;40.428;-8.436;2023-07-31T02:09:22;101067.19;;;17.61;100.00
61318;BME280;47201;40.428;-8.436;2023-07-31T02:11:22;101078.75;;;17.57;100.00
61318;BME280;47201;40.428;-8.436;2023-07-31T02:13:24;101075.31;;;17.53;100.00
61318;BME280;47201;40.428;-8.436;2023-07-31T02:15:28;101073.53;;;17.54;100.00
61318;BME280;47201;40.428;-8.436;2023-07-31T02:17:29;101069.19;;;17.53;100.00
61318;BME280;47201;40.428;-8.436;2023-07-31T02:19:30;101068.53;;;17.43;100.00
61318;BME280;47201;40.428;-8.436;2023-07-31T02:21:30;101071.94;;;17.48;100.00
61318;BME280;47201;40.428;-8.436;2023-07-31T02:23:31;101067.47;;;17.50;100.00
61318;BME280;47201;40.428;-8.436;2023-07-31T02:25:32;101066.66;;;17.47;100.00
61318;BME280;47201;40.428;-8.436;2023-07-31T02:27:32;101070.25;;;17.46;100.00
61318;BME280;47201;40.428;-8.436;2023-07-31T02:29:33;101061.47;;;17.43;100.00
61318;BME280;47201;40.428;-8.436;2023-07-31T02:31:33;101070.25;;;17.44;100.00
61318;BME280;47201;40.428;-8.436;2023-07-31T02:33:34;101071.09;;;17.46;100.00
61318;BME280;47201;40.428;-8.436;2023-07-31T02:35:35;101070.16;;;17.49;100.00
61318;BME280;47201;40.428;-8.436;2023-07-31T02:37:36;101063.91;;;17.51;100.00
61318;BME280;47201;40.428;-8.436;2023-07-31T02:39:36;101065.72;;;17.51;100.00
61318;BME280;47201;40.428;-8.436;2023-07-31T02:41:37;101061.25;;;17.53;100.00
61318;BME280;47201;40.428;-8.436;2023-07-31T02:43:38;101064.75;;;17.53;100.00
61318;BME280;47201;40.428;-8.436;2023-07-31T02:45:38;101062.97;;;17.54;100.00
61318;BME280;47201;40.428;-8.436;2023-07-31T02:47:39;101064.81;;;17.52;100.00
61318;BME280;47201;40.428;-8.436;2023-07-31T02:49:40;101063.91;;;17.51;100.00
61318;BME280;47201;40.428;-8.436;2023-07-31T02:51:40;101065.75;;;17.49;100.00
61318;BME280;47201;40.428;-8.436;2023-07-31T02:53:41;101062.38;;;17.42;100.00
61318;BME280;47201;40.428;-8.436;2023-07-31T02:55:42;101064.88;;;17.49;100.00
61318;BME280;47201;40.428;-8.436;2023-07-31T02:57:42;101068.47;;;17.46;100.00
61318;BME280;47201;40.428;-8.436;2023-07-31T02:59:43;101066.53;;;17.53;100.00
61318;BME280;47201;40.428;-8.436;2023-07-31T03:01:44;101066.50;;;17.54;100.00
61318;BME280;47201;40.428;-8.436;2023-07-31T03:03:44;101064.88;;;17.49;100.00
61318;BME280;47201;40.428;-8.436;2023-07-31T03:05:46;101055.47;;;17.37;100.00
61318;BME280;47201;40.428;-8.436;2023-07-31T03:07:46;101060.75;;;17.37;100.00
61318;BME280;47201;40.428;-8.436;2023-07-31T03:09:47;101061.53;;;17.40;100.00
61318;BME280;47201;40.428;-8.436;2023-07-31T03:11:49;101069.66;;;17.33;100.00
61318;BME280;47201;40.428;-8.436;2023-07-31T03:13:49;101067.94;;;17.32;100.00
61318;BME280;47201;40.428;-8.436;2023-07-31T03:15:50;101061.75;;;17.33;100.00
61318;BME280;47201;40.428;-8.436;2023-07-31T03:17:51;101059.00;;;17.37;100.00
61318;BME280;47201;40.428;-8.436;2023-07-31T03:19:51;101060.72;;;17.38;100.00
61318;BME280;47201;40.428;-8.436;2023-07-31T03:21:52;101062.59;;;17.35;100.00
61318;BME280;47201;40.428;-8.436;2023-07-31T03:23:53;101052.88;;;17.35;100.00
61318;BME280;47201;40.428;-8.436;2023-07-31T03:26:01;101061.53;;;17.40;100.00
61318;BME280;47201;40.428;-8.436;2023-07-31T03:28:04;101053.72;;;17.36;100.00
61318;BME280;47201;40.428;-8.436;2023-07-31T03:30:05;101055.47;;;17.37;100.00
61318;BME280;47201;40.428;-8.436;2023-07-31T03:32:06;101058.94;;;17.39;100.00
61318;BME280;47201;40.428;-8.436;2023-07-31T03:34:06;101059.94;;;17.33;100.00
61318;BME280;47201;40.428;-8.436;2023-07-31T03:36:07;101058.19;;;17.34;100.00
61318;BME280;47201;40.428;-8.436;2023-07-31T03:38:08;101058.16;;;17.35;100.00
61318;BME280;47201;40.428;-8.436;2023-07-31T03:40:09;101051.22;;;17.31;100.00
61318;BME280;47201;40.428;-8.436;2023-07-31T03:42:10;101061.09;;;17.23;100.00
61318;BME280;47201;40.428;-8.436;2023-07-31T03:44:11;101056.63;;;17.25;100.00
61318;BME280;47201;40.428;-8.436;2023-07-31T03:46:11;101057.50;;;17.25;100.00
61318;BME280;47201;40.428;-8.436;2023-07-31T03:48:14;101055.03;;;17.18;100.00
61318;BME280;47201;40.428;-8.436;2023-07-31T03:50:14;101050.78;;;17.12;100.00
61318;BME280;47201;40.428;-8.436;2023-07-31T03:52:15;101051.59;;;17.14;100.00
61318;BME280;47201;40.428;-8.436;2023-07-31T03:54:16;101052.50;;;17.13;100.00
61318;BME280;47201;40.428;-8.436;2023-07-31T03:56:16;101041.94;;;17.13;100.00
61318;BME280;47201;40.428;-8.436;2023-07-31T03:58:17;101048.94;;;17.14;100.00
61318;BME280;47201;40.428;-8.436;2023-07-31T04:00:18;101056.78;;;17.19;100.00
61318;BME280;47201;40.428;-8.436;2023-07-31T04:02:18;101054.97;;;17.21;100.00
61318;BME280;47201;40.428;-8.436;2023-07-31T04:04:19;101055.75;;;17.24;100.00
61318;BME280;47201;40.428;-8.436;2023-07-31T04:06:20;101047.00;;;17.22;100.00
61318;BME280;47201;40.428;-8.436;2023-07-31T04:08:20;101043.47;;;17.23;100.00
61318;BME280;47201;40.428;-8.436;2023-07-31T04:10:21;101046.09;;;17.23;100.00
61318;BME280;47201;40.428;-8.436;2023-07-31T04:12:21;101045.03;;;17.31;100.00
61318;BME280;47201;40.428;-8.436;2023-07-31T04:14:22;101045.56;;;17.45;100.00
61318;BME280;47201;40.428;-8.436;2023-07-31T04:16:23;101045.50;;;17.48;100.00
61318;BME280;47201;40.428;-8.436;2023-07-31T04:18:25;101055.13;;;17.51;100.00
61318;BME280;47201;40.428;-8.436;2023-07-31T04:20:29;101050.75;;;17.50;100.00
61318;BME280;47201;40.428;-8.436;2023-07-31T04:22:29;101052.59;;;17.46;100.00
61318;BME280;47201;40.428;-8.436;2023-07-31T04:24:30;101050.91;;;17.43;100.00
61318;BME280;47201;40.428;-8.436;2023-07-31T04:26:31;101053.59;;;17.42;100.00
61318;BME280;47201;40.428;-8.436;2023-07-31T04:28:31;101044.88;;;17.38;100.00
61318;BME280;47201;40.428;-8.436;2023-07-31T04:30:32;101055.56;;;17.34;100.00
61318;BME280;47201;40.428;-8.436;2023-07-31T04:32:33;101059.00;;;17.36;100.00
61318;BME280;47201;40.428;-8.436;2023-07-31T04:34:34;101055.41;;;17.40;100.00
61318;BME280;47201;40.428;-8.436;2023-07-31T04:36:34;101056.97;;;17.47;100.00
61318;BME280;47201;40.428;-8.436;2023-07-31T04:38:35;101058.78;;;17.45;100.00
61318;BME280;47201;40.428;-8.436;2023-07-31T04:40:35;101056.31;;;17.39;100.00
61318;BME280;47201;40.428;-8.436;2023-07-31T04:42:36;101059.00;;;17.37;100.00
61318;BME280;47201;40.428;-8.436;2023-07-31T04:44:37;101057.31;;;17.33;100.00
61318;BME280;47201;40.428;-8.436;2023-07-31T04:46:37;101058.41;;;17.24;100.00
61318;BME280;47201;40.428;-8.436;2023-07-31T04:48:38;101052.13;;;17.30;100.00
61318;BME280;47201;40.428;-8.436;2023-07-31T04:50:39;101061.06;;;17.24;100.00
61318;BME280;47201;40.428;-8.436;2023-07-31T04:52:39;101061.91;;;17.25;100.00
61318;BME280;47201;40.428;-8.436;2023-07-31T04:54:40;101057.56;;;17.22;100.00
61318;BME280;47201;40.428;-8.436;2023-07-31T04:56:41;101061.91;;;17.26;100.00
61318;BME280;47201;40.428;-8.436;2023-07-31T04:58:42;101064.53;;;17.26;100.00
61318;BME280;47201;40.428;-8.436;2023-07-31T05:00:42;101057.63;;;17.21;100.00
61318;BME280;47201;40.428;-8.436;2023-07-31T05:02:43;101063.75;;;17.21;100.00
61318;BME280;47201;40.428;-8.436;2023-07-31T05:04:43;101056.72;;;17.20;100.00
61318;BME280;47201;40.428;-8.436;2023-07-31T05:06:44;101060.25;;;17.21;100.00
61318;BME280;47201;40.428;-8.436;2023-07-31T05:08:45;101054.88;;;17.25;100.00
61318;BME280;47201;40.428;-8.436;2023-07-31T05:10:45;101053.09;;;17.26;100.00
61318;BME280;47201;40.428;-8.436;2023-07-31T05:12:46;101056.59;;;17.26;100.00
61318;BME280;47201;40.428;-8.436;2023-07-31T05:14:47;101048.69;;;17.26;100.00
61318;BME280;47201;40.428;-8.436;2023-07-31T05:16:47;101052.13;;;17.28;100.00
61318;BME280;47201;40.428;-8.436;2023-07-31T05:18:48;101045.03;;;17.31;100.00
61318;BME280;47201;40.428;-8.436;2023-07-31T05:20:49;101042.50;;;17.27;100.00
61318;BME280;47201;40.428;-8.436;2023-07-31T05:22:50;101045.13;;;17.27;100.00
61318;BME280;47201;40.428;-8.436;2023-07-31T05:24:51;101047.78;;;17.26;100.00
61318;BME280;47201;40.428;-8.436;2023-07-31T05:26:54;101046.09;;;17.23;100.00
61318;BME280;47201;40.428;-8.436;2023-07-31T05:28:55;101046.06;;;17.25;100.00
61318;BME280;47201;40.428;-8.436;2023-07-31T05:30:59;101050.28;;;17.34;100.00
61318;BME280;47201;40.428;-8.436;2023-07-31T05:33:00;101042.50;;;17.27;100.00
61318;BME280;47201;40.428;-8.436;2023-07-31T05:35:01;101045.13;;;17.27;100.00
61318;BME280;47201;40.428;-8.436;2023-07-31T05:37:01;101053.06;;;17.27;100.00
61318;BME280;47201;40.428;-8.436;2023-07-31T05:39:02;101051.22;;;17.29;100.00
61318;BME280;47201;40.428;-8.436;2023-07-31T05:41:07;101048.53;;;17.33;100.00
61318;BME280;47201;40.428;-8.436;2023-07-31T05:43:08;101057.25;;;17.36;100.00
61318;BME280;47201;40.428;-8.436;2023-07-31T05:45:10;101050.34;;;17.31;100.00
61318;BME280;47201;40.428;-8.436;2023-07-31T05:47:11;101052.22;;;17.25;100.00
61318;BME280;47201;40.428;-8.436;2023-07-31T05:49:12;101057.50;;;17.25;100.00
61318;BME280;47201;40.428;-8.436;2023-07-31T05:51:12;101053.16;;;17.23;100.00
61318;BME280;47201;40.428;-8.436;2023-07-31T05:53:13;101049.53;;;17.27;100.00
61318;BME280;47201;40.428;-8.436;2023-07-31T05:55:14;101060.09;;;17.27;100.00
61318;BME280;47201;40.428;-8.436;2023-07-31T05:57:14;101058.47;;;17.23;100.00
61318;BME280;47201;40.428;-8.436;2023-07-31T05:59:15;101061.13;;;17.21;100.00
61318;BME280;47201;40.428;-8.436;2023-07-31T06:01:16;101055.88;;;17.20;100.00
61318;BME280;47201;40.428;-8.436;2023-07-31T06:03:17;101061.09;;;17.23;100.00
61318;BME280;47201;40.428;-8.436;2023-07-31T06:05:18;101055.81;;;17.21;100.00
61318;BME280;47201;40.428;-8.436;2023-07-31T06:07:18;101065.44;;;17.24;100.00
61318;BME280;47201;40.428;-8.436;2023-07-31T06:09:19;101056.56;;;17.28;100.00
61318;BME280;47201;40.428;-8.436;2023-07-31T06:11:20;101059.25;;;17.25;100.00
61318;BME280;47201;40.428;-8.436;2023-07-31T06:13:21;101061.13;;;17.21;100.00
61318;BME280;47201;40.428;-8.436;2023-07-31T06:15:22;101061.06;;;17.24;100.00
61318;BME280;47201;40.428;-8.436;2023-07-31T06:17:22;101060.91;;;17.31;100.00
61318;BME280;47201;40.428;-8.436;2023-07-31T06:19:23;101062.94;;;17.19;100.00
61318;BME280;47201;40.428;-8.436;2023-07-31T06:21:24;101067.34;;;17.19;100.00
61318;BME280;47201;40.428;-8.436;2023-07-31T06:23:25;101069.88;;;17.23;100.00
61318;BME280;47201;40.428;-8.436;2023-07-31T06:25:25;101066.28;;;17.26;100.00
61318;BME280;47201;40.428;-8.436;2023-07-31T06:27:29;101073.41;;;17.22;100.00
61318;BME280;47201;40.428;-8.436;2023-07-31T06:29:30;101078.56;;;17.28;100.00
61318;BME280;47201;40.428;-8.436;2023-07-31T06:31:30;101078.56;;;17.28;100.00
61318;BME280;47201;40.428;-8.436;2023-07-31T06:33:31;101086.34;;;17.35;100.00
61318;BME280;47201;40.428;-8.436;2023-07-31T06:35:32;101084.56;;;17.35;100.00
61318;BME280;47201;40.428;-8.436;2023-07-31T06:37:32;101084.53;;;17.37;100.00
61318;BME280;47201;40.428;-8.436;2023-07-31T06:39:33;101082.72;;;17.39;100.00
61318;BME280;47201;40.428;-8.436;2023-07-31T06:41:34;101082.78;;;17.36;100.00
61318;BME280;47201;40.428;-8.436;2023-07-31T06:43:40;101082.97;;;17.28;100.00
61318;BME280;47201;40.428;-8.436;2023-07-31T06:45:41;101081.19;;;17.30;100.00
61318;BME280;47201;40.428;-8.436;2023-07-31T06:47:41;101076.69;;;17.34;100.00
61318;BME280;47201;40.428;-8.436;2023-07-31T06:49:42;101088.91;;;17.38;100.00
61318;BME280;47201;40.428;-8.436;2023-07-31T06:51:43;101079.09;;;17.43;100.00
61318;BME280;47201;40.428;-8.436;2023-07-31T06:53:44;101091.59;;;17.36;100.00
61318;BME280;47201;40.428;-8.436;2023-07-31T06:55:45;101096.88;;;17.36;100.00
61318;BME280;47201;40.428;-8.436;2023-07-31T06:57:47;101087.09;;;17.40;100.00
61318;BME280;47201;40.428;-8.436;2023-07-31T06:59:48;101084.41;;;17.41;100.00
61318;BME280;47201;40.428;-8.436;2023-07-31T07:01:49;101096.00;;;17.36;100.00
61318;BME280;47201;40.428;-8.436;2023-07-31T07:03:49;101087.63;;;17.18;100.00
61318;BME280;47201;40.428;-8.436;2023-07-31T07:05:51;101094.50;;;17.25;100.00
61318;BME280;47201;40.428;-8.436;2023-07-31T07:07:51;101098.63;;;17.37;100.00
61318;BME280;47201;40.428;-8.436;2023-07-31T07:09:52;101096.41;;;17.56;100.00
61318;BME280;47201;40.428;-8.436;2023-07-31T07:11:53;101104.41;;;17.53;100.00
61318;BME280;47201;40.428;-8.436;2023-07-31T07:13:53;101098.00;;;17.62;100.00
61318;BME280;47201;40.428;-8.436;2023-07-31T07:15:54;101104.94;;;17.68;100.00
61318;BME280;47201;40.428;-8.436;2023-07-31T07:17:55;101104.06;;;17.67;100.00
61318;BME280;47201;40.428;-8.436;2023-07-31T07:19:55;101114.56;;;17.70;100.00
61318;BME280;47201;40.428;-8.436;2023-07-31T07:21:56;101108.47;;;17.68;100.00
61318;BME280;47201;40.428;-8.436;2023-07-31T07:23:57;101109.16;;;17.75;100.00
61318;BME280;47201;40.428;-8.436;2023-07-31T07:25:57;101108.69;;;17.95;100.00
61318;BME280;47201;40.428;-8.436;2023-07-31T07:27:58;101111.06;;;18.06;100.00
61318;BME280;47201;40.428;-8.436;2023-07-31T07:29:59;101112.38;;;18.22;100.00
61318;BME280;47201;40.428;-8.436;2023-07-31T07:31:59;101111.06;;;18.39;100.00
61318;BME280;47201;40.428;-8.436;2023-07-31T07:34:00;101119.13;;;18.66;100.00
61318;BME280;47201;40.428;-8.436;2023-07-31T07:36:03;101123.59;;;18.95;100.00
61318;BME280;47201;40.428;-8.436;2023-07-31T07:38:03;101121.06;;;19.21;100.00
61318;BME280;47201;40.428;-8.436;2023-07-31T07:40:04;101128.81;;;19.55;100.00
61318;BME280;47201;40.428;-8.436;2023-07-31T07:42:05;101128.94;;;20.06;100.00
61318;BME280;47201;40.428;-8.436;2023-07-31T07:44:07;101127.34;;;20.51;96.98
61318;BME280;47201;40.428;-8.436;2023-07-31T07:46:08;101135.69;;;20.65;94.41
61318;BME280;47201;40.428;-8.436;2023-07-31T07:48:09;101131.22;;;20.91;92.97
61318;BME280;47201;40.428;-8.436;2023-07-31T07:50:10;101127.97;;;21.29;90.11
61318;BME280;47201;40.428;-8.436;2023-07-31T07:52:10;101128.50;;;22.45;86.67
61318;BME280;47201;40.428;-8.436;2023-07-31T07:54:11;101136.69;;;23.93;78.39
61318;BME280;47201;40.428;-8.436;2023-07-31T07:56:11;101146.66;;;25.08;71.08
61318;BME280;47201;40.428;-8.436;2023-07-31T07:58:12;101151.13;;;26.47;68.13
61318;BME280;47201;40.428;-8.436;2023-07-31T08:00:13;101154.09;;;27.96;65.12
61318;BME280;47201;40.428;-8.436;2023-07-31T08:02:17;101160.06;;;29.29;63.09
61318;BME280;47201;40.428;-8.436;2023-07-31T08:04:17;101155.50;;;31.17;64.18
61318;BME280;47201;40.428;-8.436;2023-07-31T08:06:18;101172.69;;;32.56;66.36
61318;BME280;47201;40.428;-8.436;2023-07-31T08:08:19;101168.03;;;33.89;69.69
61318;BME280;47201;40.428;-8.436;2023-07-31T08:10:20;101168.03;;;34.56;71.68
61318;BME280;47201;40.428;-8.436;2023-07-31T08:12:21;101168.75;;;34.86;72.57
61318;BME280;47201;40.428;-8.436;2023-07-31T08:14:21;101178.97;;;33.48;74.45
61318;BME280;47201;40.428;-8.436;2023-07-31T08:16:22;101172.06;;;32.22;75.79
61318;BME280;47201;40.428;-8.436;2023-07-31T08:18:22;101173.38;;;32.06;75.78
61318;BME280;47201;40.428;-8.436;2023-07-31T08:20:23;101175.03;;;31.10;76.40
61318;BME280;47201;40.428;-8.436;2023-07-31T08:22:24;101174.22;;;30.17;77.06
61318;BME280;47201;40.428;-8.436;2023-07-31T08:24:25;101161.59;;;30.29;76.04
61318;BME280;47201;40.428;-8.436;2023-07-31T08:26:26;101161.94;;;30.60;75.65
61318;BME280;47201;40.428;-8.436;2023-07-31T08:28:29;101171.38;;;31.43;74.77
61318;BME280;47201;40.428;-8.436;2023-07-31T08:30:30;101171.78;;;32.04;74.25
61318;BME280;47201;40.428;-8.436;2023-07-31T08:32:31;101164.78;;;32.43;74.24
61318;BME280;47201;40.428;-8.436;2023-07-31T08:34:32;101173.31;;;32.70;74.20
61318;BME280;47201;40.428;-8.436;2023-07-31T08:36:32;101176.31;;;33.58;73.83
61318;BME280;47201;40.428;-8.436;2023-07-31T08:38:33;101173.94;;;34.32;73.70
61318;BME280;47201;40.428;-8.436;2023-07-31T08:40:37;101178.16;;;35.02;73.09
61318;BME280;47201;40.428;-8.436;2023-07-31T08:42:45;101184.22;;;35.60;73.38
61318;BME280;47201;40.428;-8.436;2023-07-31T08:44:46;101168.00;;;35.04;74.75
61318;BME280;47201;40.428;-8.436;2023-07-31T08:46:47;101172.56;;;35.67;74.33
61318;BME280;47201;40.428;-8.436;2023-07-31T08:48:50;101170.47;;;35.97;74.28
61318;BME280;47201;40.428;-8.436;2023-07-31T08:50:52;101169.66;;;36.05;74.32
61318;BME280;47201;40.428;-8.436;2023-07-31T08:52:53;101164.38;;;35.13;75.84
61318;BME280;47201;40.428;-8.436;2023-07-31T08:54:54;101170.41;;;36.15;74.84
61318;BME280;47201;40.428;-8.436;2023-07-31T08:56:56;101168.88;;;36.65;74.38
61318;BME280;47201;40.428;-8.436;2023-07-31T08:58:59;101159.19;;;37.14;74.51
61318;BME280;47201;40.428;-8.436;2023-07-31T09:01:04;101159.44;;;37.70;73.95
61318;BME280;47201;40.428;-8.436;2023-07-31T09:03:09;101167.63;;;37.62;74.47
61318;BME280;47201;40.428;-8.436;2023-07-31T09:05:13;101158.78;;;37.85;74.55
61318;BME280;47201;40.428;-8.436;2023-07-31T09:07:15;101163.19;;;37.77;74.23
61318;BME280;47201;40.428;-8.436;2023-07-31T09:09:16;101153.56;;;35.49;76.88
61318;BME280;47201;40.428;-8.436;2023-07-31T09:11:17;101154.09;;;36.15;76.73
61318;BME280;47201;40.428;-8.436;2023-07-31T09:13:17;101165.13;;;37.01;76.04
61318;BME280;47201;40.428;-8.436;2023-07-31T09:15:19;101166.53;;;37.22;75.73
61318;BME280;47201;40.428;-8.436;2023-07-31T09:17:29;101173.41;;;37.42;75.60
61318;BME280;47201;40.428;-8.436;2023-07-31T09:19:34;101175.78;;;37.37;75.46
61318;BME280;47201;40.428;-8.436;2023-07-31T09:21:48;101171.66;;;37.33;76.07
61318;BME280;47201;40.428;-8.436;2023-07-31T09:23:49;101175.47;;;37.73;75.02
61318;BME280;47201;40.428;-8.436;2023-07-31T09:25:53;101169.13;;;36.01;76.98
61318;BME280;47201;40.428;-8.436;2023-07-31T09:29:59;101158.41;;;35.28;77.89
61318;BME280;47201;40.428;-8.436;2023-07-31T09:32:00;101167.81;;;36.05;77.30
61318;BME280;47201;40.428;-8.436;2023-07-31T09:34:00;101169.13;;;36.54;76.62
61318;BME280;47201;40.428;-8.436;2023-07-31T09:36:01;101175.47;;;37.49;75.72
61318;BME280;47201;40.428;-8.436;2023-07-31T09:38:15;101168.00;;;37.92;75.34
61318;BME280;47201;40.428;-8.436;2023-07-31T09:40:33;101167.94;;;38.42;74.91
61318;BME280;47201;40.428;-8.436;2023-07-31T09:42:34;101165.94;;;38.11;75.19
61318;BME280;47201;40.428;-8.436;2023-07-31T09:44:40;101161.22;;;36.69;77.16
61318;BME280;47201;40.428;-8.436;2023-07-31T09:46:43;101156.47;;;37.22;76.57
61318;BME280;47201;40.428;-8.436;2023-07-31T09:48:44;101167.63;;;37.70;76.03
61318;BME280;47201;40.428;-8.436;2023-07-31T09:50:48;101155.56;;;38.62;75.09
61318;BME280;47201;40.428;-8.436;2023-07-31T09:52:49;101157.41;;;38.70;75.07
61318;BME280;47201;40.428;-8.436;2023-07-31T09:54:49;101161.19;;;39.09;74.65
61318;BME280;47201;40.428;-8.436;2023-07-31T09:56:50;101147.13;;;39.12;74.69
61318;BME280;47201;40.428;-8.436;2023-07-31T09:58:51;101152.22;;;38.35;76.23
61318;BME280;47201;40.428;-8.436;2023-07-31T10:00:52;101150.66;;;38.97;75.01
61318;BME280;47201;40.428;-8.436;2023-07-31T10:02:54;101144.19;;;38.90;75.14
61318;BME280;47201;40.428;-8.436;2023-07-31T10:04:57;101137.38;;;39.17;75.07
61318;BME280;47201;40.428;-8.436;2023-07-31T10:07:00;101132.69;;;38.63;75.96
61318;BME280;47201;40.428;-8.436;2023-07-31T10:09:08;101132.84;;;37.81;76.38
61318;BME280;47201;40.428;-8.436;2023-07-31T10:11:09;101134.91;;;36.86;77.77
61318;BME280;47201;40.428;-8.436;2023-07-31T10:13:13;101132.09;;;37.12;77.11
61318;BME280;47201;40.428;-8.436;2023-07-31T10:15:14;101129.19;;;37.14;77.53
61318;BME280;47201;40.428;-8.436;2023-07-31T10:17:17;101132.00;;;38.05;76.73
61318;BME280;47201;40.428;-8.436;2023-07-31T10:19:20;101130.97;;;37.81;76.31
61318;BME280;47201;40.428;-8.436;2023-07-31T10:21:21;101137.13;;;38.00;76.51
61318;BME280;47201;40.428;-8.436;2023-07-31T10:23:23;101130.78;;;38.16;76.16
61318;BME280;47201;40.428;-8.436;2023-07-31T10:25:29;101135.81;;;38.52;75.71
61318;BME280;47201;40.428;-8.436;2023-07-31T10:27:30;101134.69;;;38.38;76.27
61318;BME280;47201;40.428;-8.436;2023-07-31T10:29:31;101137.28;;;38.63;75.70
61318;BME280;47201;40.428;-8.436;2023-07-31T10:31:33;101140.97;;;37.31;76.98
61318;BME280;47201;40.428;-8.436;2023-07-31T10:33:35;101134.34;;;38.33;76.21